createdAt,value
2018-11-12T00:00:24.490Z,36.00
2018-11-12T00:02:59.588Z,39.23
2018-11-12T00:05:29.063Z,40.13
2018-11-12T00:07:57.825Z,36.60
2018-11-12T00:10:26.589Z,37.67
2018-11-12T00:12:55.319Z,34.37
2018-11-12T00:15:24.097Z,36.77
2018-11-12T00:17:52.947Z,40.77
2018-11-12T00:20:21.796Z,40.57
2018-11-12T00:22:50.589Z,36.70
2018-11-12T00:25:19.365Z,34.50
2018-11-12T00:27:48.244Z,34.50
2018-11-12T00:30:18.281Z,32.03
2018-11-12T00:32:47.799Z,30.07
2018-11-12T00:35:16.501Z,26.07
2018-11-12T00:37:45.708Z,30.23
2018-11-12T00:40:15.761Z,28.37
2018-11-12T00:42:44.973Z,24.77
2018-11-12T00:45:14.053Z,24.57
2018-11-12T00:47:42.982Z,24.80
2018-11-12T00:50:12.987Z,24.17
2018-11-12T00:52:41.764Z,27.40
2018-11-12T00:55:12.329Z,28.40
2018-11-12T00:57:41.532Z,24.40
2018-11-12T01:00:17.381Z,24.63
2018-11-12T01:02:47.222Z,25.77
2018-11-12T01:05:16.607Z,25.70
2018-11-12T01:07:45.654Z,24.87
2018-11-12T01:10:15.349Z,19.47
2018-11-12T01:12:44.605Z,22.47
2018-11-12T01:15:17.669Z,30.07
2018-11-12T01:17:46.563Z,23.00
2018-11-12T01:20:16.212Z,22.23
2018-11-12T01:22:44.974Z,26.13
2018-11-12T01:25:14.386Z,23.17
2018-11-12T01:27:43.799Z,20.63
2018-11-12T01:30:13.824Z,20.70
2018-11-12T01:32:42.923Z,22.43
2018-11-12T01:35:12.830Z,21.50
2018-11-12T01:37:41.972Z,21.77
2018-11-12T01:40:11.666Z,25.57
2018-11-12T01:42:40.525Z,23.33
2018-11-12T01:45:12.080Z,19.77
2018-11-12T01:47:40.964Z,21.10
2018-11-12T01:50:11.357Z,23.43
2018-11-12T01:52:40.247Z,21.70
2018-11-12T01:55:10.203Z,20.23
2018-11-12T01:57:38.951Z,22.40
2018-11-12T02:00:11.571Z,23.40
2018-11-12T02:02:40.487Z,23.17
2018-11-12T02:05:09.718Z,21.73
2018-11-12T02:07:38.473Z,24.17
2018-11-12T02:10:08.794Z,20.37
2018-11-12T02:12:37.955Z,19.37
2018-11-12T02:15:10.944Z,22.77
2018-11-12T02:17:39.726Z,19.37
2018-11-12T02:20:10.269Z,20.17
2018-11-12T02:22:38.996Z,20.50
2018-11-12T02:25:08.449Z,22.83
2018-11-12T02:27:37.339Z,22.23
2018-11-12T02:30:10.186Z,23.93
2018-11-12T02:32:38.932Z,17.70
2018-11-12T02:35:08.065Z,19.73
2018-11-12T02:37:37.469Z,18.03
2018-11-12T02:40:07.311Z,20.77
2018-11-12T02:42:36.028Z,19.13
2018-11-12T02:45:04.999Z,19.60
2018-11-12T02:47:33.752Z,17.77
2018-11-12T02:50:02.518Z,18.23
2018-11-12T02:52:31.263Z,17.90
2018-11-12T02:55:00.009Z,19.47
2018-11-12T02:57:28.936Z,16.17
2018-11-12T02:59:57.584Z,18.40
2018-11-12T03:02:26.328Z,17.73
2018-11-12T03:04:55.126Z,20.37
2018-11-12T03:07:23.988Z,22.30
2018-11-12T03:09:52.735Z,20.67
2018-11-12T03:12:21.480Z,19.50
2018-11-12T03:14:50.329Z,18.90
2018-11-12T03:17:19.138Z,19.83
2018-11-12T03:19:47.888Z,21.00
2018-11-12T03:22:16.645Z,19.83
2018-11-12T03:24:45.368Z,17.23
2018-11-12T03:27:14.111Z,20.47
2018-11-12T03:29:42.886Z,20.40
2018-11-12T03:32:11.617Z,17.40
2018-11-12T03:34:40.444Z,22.60
2018-11-12T03:37:09.369Z,17.97
2018-11-12T03:39:38.224Z,17.63
2018-11-12T03:42:07.012Z,16.37
2018-11-12T03:44:36.016Z,17.33
2018-11-12T03:47:04.881Z,18.90
2018-11-12T03:49:33.666Z,17.23
2018-11-12T03:52:02.524Z,17.17
2018-11-12T03:54:31.302Z,18.10
2018-11-12T03:57:00.055Z,19.53
2018-11-12T03:59:28.804Z,18.07
2018-11-12T04:01:57.542Z,17.03
2018-11-12T04:04:26.281Z,20.13
2018-11-12T04:06:55.068Z,17.97
2018-11-12T04:09:23.901Z,15.23
2018-11-12T04:11:52.760Z,19.17
2018-11-12T04:14:21.577Z,16.43
2018-11-12T04:16:51.556Z,17.97
2018-11-12T04:19:20.498Z,22.10
2018-11-12T04:21:49.304Z,16.37
2018-11-12T04:24:18.049Z,18.07
2018-11-12T04:26:46.809Z,14.23
2018-11-12T04:29:15.562Z,14.47
2018-11-12T04:31:44.341Z,15.00
2018-11-12T04:34:13.235Z,14.80
2018-11-12T04:36:42.016Z,14.83
2018-11-12T04:39:10.737Z,14.93
2018-11-12T04:41:39.599Z,16.70
2018-11-12T04:44:08.319Z,15.33
2018-11-12T04:46:38.196Z,17.43
2018-11-12T04:49:06.961Z,18.80
2018-11-12T04:51:35.777Z,17.17
2018-11-12T04:54:04.560Z,19.27
2018-11-12T04:56:33.410Z,16.93
2018-11-12T04:59:02.203Z,21.10
2018-11-12T05:01:30.934Z,16.00
2018-11-12T05:03:59.701Z,18.30
2018-11-12T05:06:28.522Z,19.70
2018-11-12T05:08:57.227Z,20.87
2018-11-12T05:11:26.008Z,19.53
2018-11-12T05:13:54.730Z,19.93
2018-11-12T05:16:23.584Z,21.07
2018-11-12T05:18:52.468Z,21.47
2018-11-12T05:21:21.442Z,22.40
2018-11-12T05:23:50.313Z,23.10
2018-11-12T05:26:19.232Z,22.80
2018-11-12T05:28:48.061Z,19.77
2018-11-12T05:31:16.808Z,21.57
2018-11-12T05:33:45.520Z,21.13
2018-11-12T05:36:14.337Z,22.53
2018-11-12T05:38:43.135Z,23.17
2018-11-12T05:41:11.917Z,21.53
2018-11-12T05:43:40.644Z,22.87
2018-11-12T05:46:09.479Z,25.60
2018-11-12T05:48:38.529Z,25.37
2018-11-12T05:51:07.240Z,21.40
2018-11-12T05:53:35.963Z,22.50
2018-11-12T05:56:04.992Z,25.00
2018-11-12T05:58:33.736Z,25.30
2018-11-12T06:01:02.453Z,25.97
2018-11-12T06:03:31.344Z,26.90
2018-11-12T06:06:00.138Z,33.77
2018-11-12T06:08:28.936Z,28.70
2018-11-12T06:10:57.793Z,22.87
2018-11-12T06:13:26.685Z,22.23
2018-11-12T06:15:55.449Z,27.70
2018-11-12T06:18:24.180Z,26.30
2018-11-12T06:20:53.042Z,23.40
2018-11-12T06:23:21.816Z,24.73
2018-11-12T06:25:50.642Z,25.90
2018-11-12T06:28:19.442Z,25.93
2018-11-12T06:30:48.204Z,29.67
2018-11-12T06:33:17.142Z,28.10
2018-11-12T06:35:45.909Z,27.57
2018-11-12T06:38:14.766Z,33.53
2018-11-12T06:40:43.529Z,24.97
2018-11-12T06:43:12.363Z,25.40
2018-11-12T06:45:41.105Z,27.00
2018-11-12T06:48:09.848Z,27.60
2018-11-12T06:50:38.574Z,27.73
2018-11-12T06:53:07.410Z,28.77
2018-11-12T06:55:36.132Z,30.83
2018-11-12T06:58:04.870Z,26.27
2018-11-12T07:00:35.468Z,26.93
2018-11-12T07:03:04.342Z,30.90
2018-11-12T07:05:33.456Z,25.10
2018-11-12T07:08:02.307Z,29.20
2018-11-12T07:10:31.015Z,30.47
2018-11-12T07:13:05.435Z,28.17
2018-11-12T07:15:39.929Z,30.67
2018-11-12T07:18:25.501Z,29.23
2018-11-12T07:20:54.300Z,30.33
2018-11-12T07:23:23.134Z,32.13
2018-11-12T07:25:52.057Z,31.77
2018-11-12T07:28:21.037Z,30.43
2018-11-12T07:30:49.876Z,30.67
2018-11-12T07:33:18.618Z,32.10
2018-11-12T07:35:47.359Z,31.47
2018-11-12T07:38:16.152Z,34.80
2018-11-12T07:40:44.952Z,29.30
2018-11-12T07:43:13.700Z,32.47
2018-11-12T07:45:42.489Z,35.73
2018-11-12T07:48:11.253Z,32.63
2018-11-12T07:50:40.004Z,30.53
2018-11-12T07:53:08.785Z,32.10
2018-11-12T07:55:37.529Z,33.13
2018-11-12T07:58:06.275Z,29.73
2018-11-12T08:00:35.307Z,31.50
2018-11-12T08:03:08.421Z,30.80
2018-11-12T08:05:37.619Z,34.70
2018-11-12T08:08:06.566Z,33.70
2018-11-12T08:10:35.364Z,29.63
2018-11-12T08:13:04.710Z,37.30
2018-11-12T08:15:35.142Z,31.20
2018-11-12T08:18:04.592Z,33.10
2018-11-12T08:20:33.446Z,32.17
2018-11-12T08:23:02.305Z,32.70
2018-11-12T08:25:33.194Z,34.00
2018-11-12T08:28:01.941Z,33.90
2018-11-12T08:30:30.843Z,34.57
2018-11-12T08:33:00.494Z,32.47
2018-11-12T08:35:29.322Z,32.73
2018-11-12T08:37:58.520Z,32.87
2018-11-12T08:40:28.783Z,35.43
2018-11-12T08:42:57.453Z,30.27
2018-11-12T08:45:26.323Z,29.57
2018-11-12T08:47:56.026Z,33.30
2018-11-12T08:50:25.913Z,30.90
2018-11-12T08:52:55.519Z,34.03
2018-11-12T08:55:25.907Z,33.83
2018-11-12T08:57:56.907Z,33.60
2018-11-12T09:00:26.524Z,31.60
2018-11-12T09:02:55.298Z,34.93
2018-11-12T09:05:25.159Z,35.13
2018-11-12T09:07:55.496Z,32.97
2018-11-12T09:10:26.254Z,31.50
2018-11-12T09:12:54.996Z,31.90
2018-11-12T09:15:23.792Z,33.33
2018-11-12T09:17:52.679Z,34.67
2018-11-12T09:20:22.737Z,34.33
2018-11-12T09:22:51.789Z,32.70
2018-11-12T09:25:25.206Z,29.60
2018-11-12T09:27:54.044Z,28.97
2018-11-12T09:30:24.521Z,30.50
2018-11-12T09:32:53.401Z,33.33
2018-11-12T09:35:23.504Z,31.37
2018-11-12T09:37:53.346Z,34.73
2018-11-12T09:40:25.569Z,33.40
2018-11-12T09:42:54.429Z,37.33
2018-11-12T09:45:23.330Z,30.57
2018-11-12T09:47:52.423Z,34.23
2018-11-12T09:50:22.395Z,36.00
2018-11-12T09:52:52.259Z,32.87
2018-11-12T09:55:22.036Z,37.30
2018-11-12T09:57:53.146Z,34.47
2018-11-12T10:00:22.451Z,35.27
2018-11-12T10:02:52.274Z,30.97
2018-11-12T10:05:21.329Z,32.23
2018-11-12T10:07:53.138Z,36.07
2018-11-12T10:10:30.506Z,38.00
2018-11-12T10:12:58.430Z,34.13
2018-11-12T10:15:27.881Z,37.60
2018-11-12T10:18:06.211Z,35.80
2018-11-12T10:20:35.447Z,38.57
2018-11-12T10:23:05.880Z,35.10
2018-11-12T10:25:36.665Z,40.80
2018-11-12T10:28:07.241Z,36.87
2018-11-12T10:30:37.118Z,33.07
2018-11-12T10:33:05.935Z,36.33
2018-11-12T10:35:34.705Z,36.50
2018-11-12T10:38:03.978Z,36.53
2018-11-12T10:40:32.970Z,34.13
2018-11-12T10:43:03.301Z,36.40
2018-11-12T10:45:32.269Z,37.27
2018-11-12T10:48:01.023Z,35.10
2018-11-12T10:50:29.874Z,35.70
2018-11-12T10:52:58.610Z,36.80
2018-11-12T10:55:27.670Z,34.70
2018-11-12T10:57:56.201Z,35.67
2018-11-12T11:00:31.648Z,36.43
2018-11-12T11:03:06.969Z,35.17
2018-11-12T11:05:36.649Z,36.33
2018-11-12T11:08:05.587Z,38.43
2018-11-12T11:10:34.362Z,31.63
2018-11-12T11:13:03.965Z,34.87
2018-11-12T11:15:33.446Z,33.50
2018-11-12T11:18:02.277Z,32.93
2018-11-12T11:20:31.462Z,33.87
2018-11-12T11:23:00.564Z,36.40
2018-11-12T11:25:31.546Z,38.20
2018-11-12T11:28:01.039Z,38.30
2018-11-12T11:30:29.914Z,37.90
2018-11-12T11:32:58.723Z,37.03
2018-11-12T11:35:27.446Z,41.40
2018-11-12T11:37:56.258Z,42.77
2018-11-12T11:40:26.451Z,39.90
2018-11-12T11:42:56.065Z,43.47
2018-11-12T11:45:24.880Z,41.10
2018-11-12T11:47:54.121Z,47.03
2018-11-12T11:50:25.064Z,47.57
2018-11-12T11:52:53.945Z,43.80
2018-11-12T11:55:23.920Z,45.53
2018-11-12T11:57:53.155Z,48.13
2018-11-12T12:00:23.645Z,44.10
2018-11-12T12:02:53.361Z,46.03
2018-11-12T12:05:22.948Z,45.83
2018-11-12T12:07:52.648Z,49.10
2018-11-12T12:10:21.689Z,46.30
2018-11-12T12:12:51.288Z,45.03
2018-11-12T12:15:21.823Z,45.23
2018-11-12T12:17:50.658Z,50.33
2018-11-12T12:20:20.778Z,47.00
2018-11-12T12:22:49.710Z,44.13
2018-11-12T12:25:19.061Z,43.73
2018-11-12T12:27:48.285Z,43.60
2018-11-12T12:30:22.584Z,47.37
2018-11-12T12:32:53.087Z,44.33
2018-11-12T12:35:21.925Z,41.60
2018-11-12T12:37:50.836Z,43.67
2018-11-12T12:40:20.820Z,41.87
2018-11-12T12:42:49.650Z,40.43
2018-11-12T12:45:20.319Z,39.43
2018-11-12T12:48:09.829Z,38.10
2018-11-12T12:50:38.790Z,46.10
2018-11-12T12:53:07.864Z,38.53
2018-11-12T12:55:36.690Z,39.20
2018-11-12T12:58:08.330Z,38.47
2018-11-12T13:00:44.681Z,37.67
2018-11-12T13:03:13.540Z,40.00
2018-11-12T13:05:43.727Z,40.17
2018-11-12T13:08:12.655Z,36.87
2018-11-12T13:10:42.673Z,41.13
2018-11-12T13:13:12.481Z,37.57
2018-11-12T13:15:43.163Z,39.20
2018-11-12T13:18:12.445Z,37.93
2018-11-12T13:20:59.824Z,44.93
2018-11-12T13:23:28.927Z,41.23
2018-11-12T13:25:57.742Z,40.50
2018-11-12T13:28:26.696Z,38.77
2018-11-12T13:31:05.938Z,39.13
2018-11-12T13:33:46.063Z,44.53
2018-11-12T13:36:17.573Z,44.20
2018-11-12T13:38:46.693Z,41.67
2018-11-12T13:41:16.485Z,43.00
2018-11-12T13:43:46.987Z,42.37
2018-11-12T13:46:17.982Z,43.50
2018-11-12T13:48:48.391Z,43.30
2018-11-12T13:51:18.556Z,50.03
2018-11-12T13:53:48.468Z,43.37
2018-11-12T13:56:17.451Z,41.93
2018-11-12T13:58:46.292Z,49.67
2018-11-12T14:01:21.310Z,46.43
2018-11-12T14:03:50.934Z,46.83
2018-11-12T14:06:20.154Z,48.10
2018-11-12T14:08:53.693Z,45.83
2018-11-12T14:17:20.887Z,40.70
2018-11-12T14:19:50.491Z,40.37
2018-11-12T14:22:23.846Z,39.87
2018-11-12T14:25:23.087Z,41.53
2018-11-12T14:30:56.255Z,38.23
2018-11-12T14:33:25.322Z,41.63
2018-11-12T14:35:54.363Z,41.37
2018-11-12T14:38:26.421Z,42.17
2018-11-12T14:40:56.037Z,40.73
2018-11-12T14:43:24.983Z,43.27
2018-11-12T14:45:56.934Z,40.23
2018-11-12T14:53:57.009Z,43.23
2018-11-12T14:56:26.000Z,45.23
2018-11-12T14:59:01.904Z,43.93
2018-11-12T15:01:31.150Z,41.40
2018-11-12T15:04:07.597Z,43.40
2018-11-12T15:06:36.504Z,42.10
2018-11-12T15:09:31.582Z,40.97
2018-11-12T15:12:00.513Z,42.57
2018-11-12T15:14:30.024Z,39.97
2018-11-12T15:17:03.225Z,38.60
2018-11-12T15:19:33.160Z,38.37
2018-11-12T15:22:03.311Z,38.37
2018-11-12T15:24:33.378Z,38.80
2018-11-12T15:27:02.837Z,38.10
2018-11-12T15:29:33.316Z,35.50
2018-11-12T15:32:05.940Z,35.77
2018-11-12T15:34:34.923Z,33.93
2018-11-12T15:37:04.359Z,32.43
2018-11-12T15:39:33.184Z,32.43
2018-11-12T15:42:02.026Z,32.07
2018-11-12T15:44:35.003Z,31.37
2018-11-12T15:47:05.104Z,28.77
2018-11-12T15:49:33.954Z,29.63
2018-11-12T15:52:03.837Z,28.73
2018-11-12T15:54:37.918Z,26.90
2018-11-12T15:57:07.020Z,25.93
2018-11-12T15:59:37.042Z,27.03
2018-11-12T16:02:07.044Z,26.63
2018-11-12T16:04:36.505Z,26.13
2018-11-12T16:07:05.602Z,25.08
2018-11-12T16:09:38.666Z,24.00
2018-11-12T16:12:07.557Z,25.13
2018-11-12T16:14:36.955Z,25.43
2018-11-12T16:17:05.842Z,24.83
2018-11-12T16:19:34.659Z,27.07
2018-11-12T16:22:03.560Z,24.23
2018-11-12T16:24:32.527Z,24.60
2018-11-12T16:27:14.473Z,22.77
2018-11-12T16:29:43.399Z,22.87
2018-11-12T16:32:12.128Z,23.07
2018-11-12T16:34:41.363Z,23.90
2018-11-12T16:37:10.124Z,24.97
2018-11-12T16:39:38.961Z,24.30
2018-11-12T16:42:11.608Z,25.37
2018-11-12T16:44:40.396Z,23.13
2018-11-12T16:47:09.168Z,21.57
2018-11-12T16:49:37.919Z,22.07
2018-11-12T16:52:06.674Z,23.37
2018-11-12T16:54:35.405Z,24.77
2018-11-12T16:57:04.212Z,23.67
2018-11-12T16:59:32.996Z,23.00
2018-11-12T17:02:01.891Z,25.63
2018-11-12T17:04:30.632Z,21.50
2018-11-12T17:06:59.671Z,21.10
2018-11-12T17:09:28.429Z,21.00
2018-11-12T17:11:57.249Z,21.10
2018-11-12T17:14:25.937Z,21.47
2018-11-12T17:16:54.815Z,21.80
2018-11-12T17:19:23.941Z,23.60
2018-11-12T17:21:52.703Z,21.70
2018-11-12T17:24:21.534Z,20.23
2018-11-12T17:26:51.389Z,23.53
2018-11-12T17:29:20.175Z,22.17
2018-11-12T17:31:49.003Z,21.20
2018-11-12T17:34:17.748Z,19.87
2018-11-12T17:36:46.702Z,19.80
2018-11-12T17:39:15.463Z,23.23
2018-11-12T17:41:44.562Z,23.27
2018-11-12T17:44:13.394Z,18.90
2018-11-12T17:46:42.237Z,23.00
2018-11-12T17:49:11.075Z,20.97
2018-11-12T17:51:39.894Z,18.07
2018-11-12T17:54:08.691Z,20.23
2018-11-12T17:56:37.484Z,20.30
2018-11-12T17:59:06.346Z,20.47
2018-11-12T18:01:36.331Z,19.73
2018-11-12T18:04:05.435Z,20.40
2018-11-12T18:06:34.350Z,20.13
2018-11-12T18:09:05.386Z,20.03
2018-11-12T18:11:34.430Z,20.57
2018-11-12T18:14:03.518Z,22.20
2018-11-12T18:16:32.590Z,20.23
2018-11-12T18:19:01.468Z,22.07
2018-11-12T18:21:30.307Z,20.67
2018-11-12T18:23:59.263Z,21.53
2018-11-12T18:26:28.128Z,21.60
2018-11-12T18:28:56.909Z,19.60
2018-11-12T18:31:26.185Z,23.30
2018-11-12T18:33:55.052Z,20.07
2018-11-12T18:36:23.854Z,22.53
2018-11-12T18:38:52.712Z,20.77
2018-11-12T18:41:21.518Z,20.27
2018-11-12T18:43:50.362Z,24.47
2018-11-12T18:46:19.685Z,20.27
2018-11-12T18:48:48.642Z,21.60
2018-11-12T18:51:18.686Z,23.30
2018-11-12T18:53:47.666Z,22.00
2018-11-12T18:56:16.704Z,23.53
2018-11-12T18:58:45.605Z,22.63
2018-11-12T19:01:14.563Z,23.53
2018-11-12T19:03:43.523Z,21.47
2018-11-12T19:06:12.389Z,21.17
2018-11-12T19:08:41.340Z,22.60
2018-11-12T19:11:10.347Z,23.50
2018-11-12T19:13:39.332Z,22.90
2018-11-12T19:16:08.183Z,24.47
2018-11-12T19:18:37.005Z,19.53
2018-11-12T19:21:06.006Z,28.60
2018-11-12T19:23:34.862Z,21.83
2018-11-12T19:26:03.813Z,28.97
2018-11-12T19:28:32.656Z,23.07
2018-11-12T19:31:01.440Z,24.20
2018-11-12T19:33:30.198Z,22.37
2018-11-12T19:35:59.101Z,24.83
2018-11-12T19:38:27.998Z,22.50
2018-11-12T19:40:56.833Z,24.27
2018-11-12T19:43:25.704Z,22.73
2018-11-12T19:45:54.588Z,23.10
2018-11-12T19:48:23.536Z,26.23
2018-11-12T19:50:52.406Z,23.53
2018-11-12T19:53:21.269Z,24.83
2018-11-12T19:55:50.026Z,22.13
2018-11-12T19:58:18.867Z,22.97
2018-11-12T20:00:47.685Z,21.33
2018-11-12T20:03:16.845Z,23.57
2018-11-12T20:05:45.584Z,25.17
2018-11-12T20:08:21.193Z,20.97
2018-11-12T20:10:49.840Z,23.30
2018-11-12T20:13:18.590Z,26.60
2018-11-12T20:15:47.596Z,26.27
2018-11-12T20:18:16.403Z,27.63
2018-11-12T20:20:46.476Z,24.37
2018-11-12T20:23:15.284Z,22.03
2018-11-12T20:25:44.028Z,22.93
2018-11-12T20:28:12.757Z,22.53
2018-11-12T20:30:41.543Z,22.47
2018-11-12T20:33:10.330Z,21.33
2018-11-12T20:35:39.220Z,21.30
2018-11-12T20:38:08.023Z,22.60
2018-11-12T20:40:36.756Z,21.73
2018-11-12T20:43:05.680Z,24.00
2018-11-12T20:45:34.479Z,22.00
2018-11-12T20:48:03.296Z,24.70
2018-11-12T20:50:32.004Z,25.67
2018-11-12T20:53:00.762Z,21.33
2018-11-12T20:55:29.644Z,22.53
2018-11-12T20:57:58.373Z,18.97
2018-11-12T21:00:28.157Z,21.37
2018-11-12T21:02:57.001Z,23.47
2018-11-12T21:05:27.070Z,20.93
2018-11-12T21:07:55.983Z,16.93
2018-11-12T21:10:24.731Z,21.83
2018-11-12T21:12:53.707Z,18.97
2018-11-12T21:15:23.477Z,19.70
2018-11-12T21:17:52.269Z,16.87
2018-11-12T21:20:22.344Z,18.40
2018-11-12T21:22:51.213Z,15.50
2018-11-12T21:25:22.156Z,17.53
2018-11-12T21:27:51.005Z,14.10
2018-11-12T21:30:24.179Z,19.87
2018-11-12T21:32:52.927Z,15.87
2018-11-12T21:35:21.720Z,14.80
2018-11-12T21:37:51.356Z,14.70
2018-11-12T21:40:25.067Z,15.23
2018-11-12T21:42:53.941Z,18.10
2018-11-12T21:45:24.669Z,17.17
2018-11-12T21:47:53.419Z,14.47
2018-11-12T21:50:22.620Z,14.30
2018-11-12T21:52:51.355Z,15.83
2018-11-12T21:55:20.092Z,14.93
2018-11-12T21:57:48.899Z,15.43
2018-11-12T22:00:22.926Z,16.83
2018-11-12T22:02:53.201Z,16.07
2018-11-12T22:05:22.023Z,17.93
2018-11-12T22:07:50.741Z,14.63
2018-11-12T22:10:19.780Z,15.70
2018-11-12T22:12:52.905Z,14.03
2018-11-12T22:15:21.674Z,16.63
2018-11-12T22:17:50.456Z,15.87
2018-11-12T22:20:21.494Z,11.77
2018-11-12T22:22:50.299Z,13.87
2018-11-12T22:25:20.159Z,15.83
2018-11-12T22:27:53.213Z,15.47
2018-11-12T22:30:25.220Z,13.00
2018-11-12T22:32:54.727Z,14.43
2018-11-12T22:35:23.482Z,15.30
2018-11-12T22:37:52.216Z,16.30
2018-11-12T22:40:21.588Z,12.83
2018-11-12T22:42:51.233Z,14.07
2018-11-12T22:45:21.230Z,12.03
2018-11-12T22:47:50.434Z,14.30
2018-11-12T22:50:19.185Z,13.63
2018-11-12T22:52:48.005Z,14.83
2018-11-12T22:55:18.001Z,12.93
2018-11-12T22:57:46.860Z,14.97
2018-11-12T23:00:22.196Z,16.37
2018-11-12T23:02:51.192Z,16.87
2018-11-12T23:05:20.577Z,17.27
2018-11-12T23:07:49.811Z,17.13
2018-11-12T23:10:25.187Z,17.60
2018-11-12T23:12:54.013Z,15.93
2018-11-12T23:15:22.739Z,17.30
2018-11-12T23:17:51.477Z,22.17
2018-11-12T23:20:26.660Z,20.43
2018-11-12T23:22:55.466Z,20.30
2018-11-12T23:25:24.413Z,22.70
2018-11-12T23:27:53.668Z,21.77
2018-11-12T23:30:23.765Z,21.43
2018-11-12T23:32:52.471Z,23.07
2018-11-12T23:35:25.659Z,22.40
2018-11-12T23:37:54.391Z,22.20
2018-11-12T23:40:23.242Z,20.53
2018-11-12T23:42:52.151Z,22.87
2018-11-12T23:45:20.971Z,21.40
2018-11-12T23:47:49.791Z,20.00
2018-11-12T23:50:21.236Z,19.87
2018-11-12T23:52:50.812Z,21.90
2018-11-12T23:55:19.936Z,20.43
2018-11-12T23:57:49.928Z,21.63
